Time;durP1;ratioP1;P1;durP2;ratioP2;P2;SDS_P1;SDS_P2;PMS_P1;PMS_P2;Temp;Humidity;BMP_temperature;BMP_pressure;BME280_temperature;BME280_humidity;BME280_pressure;Samples;Min_cycle;Max_cycle;Signal;HPM_P1;HPM_P2
2022/10/11 00:00:40;;;;;;;3.10;2.80;;;;;;;23.00;55.65;97933.41;4973624;28;20203;-31
2022/10/11 00:03:06;;;;;;;3.30;3.00;;;;;;;23.04;55.21;97940.38;4973200;28;20199;-31
2022/10/11 00:05:33;;;;;;;2.87;2.63;;;;;;;23.03;55.25;97942.06;4972794;28;20207;-31
2022/10/11 00:08:00;;;;;;;3.20;2.90;;;;;;;22.96;55.25;97931.59;4972258;28;20223;-31
2022/10/11 00:10:26;;;;;;;2.87;2.67;;;;;;;23.03;55.27;97942.06;4970745;28;20203;-31
2022/10/11 00:12:53;;;;;;;3.03;2.77;;;;;;;23.00;55.27;97941.97;4974581;28;20204;-31
2022/10/11 00:15:20;;;;;;;2.83;2.63;;;;;;;22.94;55.30;97928.97;4972371;28;20223;-31
2022/10/11 00:17:47;;;;;;;2.90;2.70;;;;;;;23.04;55.17;97948.06;4972384;28;20226;-31
2022/10/11 00:20:14;;;;;;;2.90;2.70;;;;;;;23.03;55.26;97948.88;4972090;28;20211;-31
2022/10/11 00:22:40;;;;;;;3.13;2.83;;;;;;;23.02;55.35;97950.59;4973457;28;20212;-31
2022/10/11 00:25:08;;;;;;;2.93;2.73;;;;;;;23.03;55.38;97954.88;4972635;28;20195;-31
2022/10/11 00:27:35;;;;;;;3.27;2.97;;;;;;;23.03;55.21;97943.75;4972467;28;20227;-31
2022/10/11 00:30:02;;;;;;;2.93;2.70;;;;;;;23.00;55.25;97935.97;4972715;28;20207;-31
2022/10/11 00:32:29;;;;;;;2.90;2.60;;;;;;;23.03;55.27;97941.19;4976573;28;20203;-31
2022/10/11 00:34:57;;;;;;;3.07;2.83;;;;;;;23.03;55.37;97941.19;4973112;28;20213;-31
2022/10/11 00:37:24;;;;;;;3.23;2.93;;;;;;;23.04;55.35;97942.94;4975427;28;20226;-31
2022/10/11 00:39:50;;;;;;;3.10;2.80;;;;;;;23.01;55.53;97941.16;4973034;28;20223;-31
2022/10/11 00:42:17;;;;;;;2.73;2.53;;;;;;;23.02;55.29;97936.91;4972108;28;20591;-31
2022/10/11 00:44:47;;;;;;;3.30;3.00;;;;;;;23.03;55.38;97943.75;4972787;28;20203;-31
2022/10/11 00:47:21;;;;;;;2.93;2.73;;;;;;;23.01;55.36;97937.72;4972508;28;20234;-31
2022/10/11 00:49:58;;;;;;;3.50;3.20;;;;;;;23.02;55.14;97940.34;4971960;28;20203;-31
2022/10/11 00:52:30;;;;;;;2.87;2.67;;;;;;;23.01;55.33;97933.44;4970087;28;20203;-31
2022/10/11 00:55:17;;;;;;;3.27;2.97;;;;;;;23.01;55.27;97935.16;4970986;28;20207;-31
2022/10/11 00:57:46;;;;;;;3.33;2.63;;;;;;;22.93;55.26;97924.69;4970270;28;20223;-31
2022/10/11 01:00:13;;;;;;;3.03;2.83;;;;;;;23.01;55.28;97943.72;4952147;28;20234;-31
2022/10/11 01:02:39;;;;;;;3.07;2.77;;;;;;;23.03;55.33;97938.63;4971884;28;20561;-31
2022/10/11 01:05:07;;;;;;;3.10;2.90;;;;;;;23.01;55.27;97947.97;4975864;28;20214;-31
2022/10/11 01:07:53;;;;;;;3.53;3.23;;;;;;;23.01;55.35;97936.00;4975191;28;20224;-31
2022/10/11 01:10:20;;;;;;;3.23;2.93;;;;;;;23.01;55.28;97941.16;4976089;28;20586;-31
2022/10/11 01:13:29;;;;;;;3.27;2.97;;;;;;;23.01;55.23;97940.28;4975007;28;20581;-31
2022/10/11 01:16:17;;;;;;;3.03;2.73;;;;;;;22.88;55.21;97910.84;4950717;28;20583;-31
2022/10/11 01:19:04;;;;;;;3.30;3.00;;;;;;;22.91;55.19;97944.25;4974853;28;20230;-31
2022/10/11 01:21:43;;;;;;;2.90;2.70;;;;;;;23.00;55.35;97936.84;4975161;28;20208;-31
2022/10/11 01:24:32;;;;;;;3.47;3.13;;;;;;;23.02;55.26;97929.22;4975089;28;20203;-31
2022/10/11 01:27:29;;;;;;;3.00;2.80;;;;;;;23.01;55.27;97927.47;4975472;28;20222;-31
2022/10/11 01:30:17;;;;;;;3.43;2.90;;;;;;;23.01;55.45;97930.03;4976270;28;20207;-31
2022/10/11 01:32:55;;;;;;;3.23;2.97;;;;;;;23.01;55.48;97930.03;4972430;28;20680;-31
2022/10/11 01:35:29;;;;;;;3.30;3.00;;;;;;;23.01;55.30;97930.03;4974998;28;20208;-31
2022/10/11 01:38:01;;;;;;;3.03;2.80;;;;;;;23.02;55.28;97940.34;4956704;28;20239;-31
2022/10/11 01:40:34;;;;;;;3.13;2.83;;;;;;;23.01;55.30;97936.00;4959163;28;20200;-31
2022/10/11 01:43:01;;;;;;;2.90;2.63;;;;;;;22.99;55.27;97931.69;4957774;28;20230;-31
2022/10/11 01:45:27;;;;;;;3.43;3.13;;;;;;;22.90;55.39;97922.03;4958641;28;20203;-31
2022/10/11 01:48:05;;;;;;;3.20;2.90;;;;;;;23.01;55.44;97937.72;4958027;28;20234;-31
2022/10/11 01:50:44;;;;;;;3.50;2.97;;;;;;;23.01;55.24;97935.16;4976082;28;20207;-31
2022/10/11 01:53:11;;;;;;;3.13;2.87;;;;;;;22.98;55.20;97933.34;4972031;28;20598;-31
2022/10/11 01:55:55;;;;;;;3.17;2.90;;;;;;;22.92;55.39;97927.19;4975763;28;20207;-31
2022/10/11 01:58:27;;;;;;;3.30;3.00;;;;;;;23.01;55.37;97940.28;4959884;28;20733;-31
2022/10/11 02:01:14;;;;;;;2.97;2.77;;;;;;;22.98;55.31;97935.06;4974555;28;20595;-31
2022/10/11 02:03:56;;;;;;;3.20;2.90;;;;;;;23.00;55.36;97941.09;4971959;28;20203;-31
2022/10/11 02:06:45;;;;;;;3.00;2.80;;;;;;;23.01;55.30;97945.41;4969570;28;20210;-31
2022/10/11 02:09:44;;;;;;;3.10;2.80;;;;;;;23.01;55.24;97947.97;4967052;28;20215;-31
2022/10/11 02:12:14;;;;;;;3.33;3.10;;;;;;;22.95;55.42;97934.97;4969122;28;20196;-32
2022/10/11 02:14:42;;;;;;;3.17;2.80;;;;;;;23.00;55.36;97946.22;4960215;28;20203;-30
2022/10/11 02:17:11;;;;;;;3.40;2.93;;;;;;;22.97;55.34;97948.69;4973396;28;20659;-31
2022/10/11 02:19:43;;;;;;;3.20;2.90;;;;;;;23.00;55.36;97943.66;4975460;28;20220;-31
2022/10/11 02:22:19;;;;;;;3.93;3.17;;;;;;;22.95;55.40;97927.28;4973153;28;20203;-31
2022/10/11 02:24:49;;;;;;;3.30;3.00;;;;;;;23.00;55.37;97941.97;4962229;28;20203;-31
2022/10/11 02:27:17;;;;;;;3.30;3.00;;;;;;;23.00;55.21;97944.53;4976569;28;20228;-31
2022/10/11 02:29:44;;;;;;;3.40;3.10;;;;;;;22.97;55.57;97941.88;4961965;28;20603;-31
2022/10/11 02:32:11;;;;;;;3.03;2.80;;;;;;;23.00;55.15;97943.66;4958061;28;20377;-31
2022/10/11 02:34:43;;;;;;;3.50;3.20;;;;;;;23.00;55.42;97943.66;4973319;28;20204;-31
2022/10/11 02:37:38;;;;;;;3.40;3.10;;;;;;;23.01;55.27;97945.41;4957473;28;20207;-31
2022/10/11 02:40:28;;;;;;;3.40;3.10;;;;;;;23.00;55.47;97951.34;4976087;28;20702;-31
2022/10/11 02:43:06;;;;;;;2.80;2.60;;;;;;;22.99;55.30;97945.38;4965919;28;20195;-31
2022/10/11 02:45:53;;;;;;;3.17;2.90;;;;;;;23.00;55.26;97933.41;4961480;28;20207;-31
2022/10/11 02:48:19;;;;;;;3.37;3.07;;;;;;;22.99;55.22;97932.56;4969513;28;20699;-31
2022/10/11 02:50:46;;;;;;;2.83;2.63;;;;;;;22.99;55.47;97932.56;4972997;28;20199;-31
2022/10/11 02:53:12;;;;;;;3.17;2.87;;;;;;;22.98;55.48;97932.50;4977039;28;20585;-31
2022/10/11 02:55:39;;;;;;;4.87;2.70;;;;;;;22.99;55.68;97936.81;4976631;28;20211;-31
2022/10/11 02:58:05;;;;;;;3.63;2.90;;;;;;;22.98;55.38;97935.91;4974752;28;20223;-31
2022/10/11 03:00:32;;;;;;;3.10;2.83;;;;;;;22.99;55.38;97931.69;4975862;28;20223;-31
2022/10/11 03:02:58;;;;;;;3.20;2.90;;;;;;;22.98;55.35;97930.78;4974029;28;20283;-31
2022/10/11 03:05:25;;;;;;;2.83;2.60;;;;;;;22.99;55.15;97935.13;4974514;28;20210;-31
2022/10/11 03:07:52;;;;;;;3.27;3.00;;;;;;;22.99;55.20;97936.81;4974065;28;20226;-31
2022/10/11 03:10:18;;;;;;;2.87;2.67;;;;;;;22.99;55.43;97939.38;4973833;28;20207;-31
2022/10/11 03:12:45;;;;;;;3.03;2.80;;;;;;;22.99;55.39;97944.50;4974193;28;20214;-31
2022/10/11 03:15:11;;;;;;;3.27;2.97;;;;;;;22.99;55.25;97947.06;4974245;28;20726;-31
2022/10/11 03:17:38;;;;;;;3.40;3.10;;;;;;;22.98;55.40;97942.78;4974170;28;20230;-32
2022/10/11 03:20:05;;;;;;;3.00;2.70;;;;;;;22.96;55.56;97946.97;4973944;28;20231;-31
2022/10/11 03:22:31;;;;;;;3.30;3.00;;;;;;;22.98;55.42;97955.59;4974104;28;20203;-31
2022/10/11 03:24:58;;;;;;;3.47;3.17;;;;;;;22.99;55.54;97958.19;4973753;28;20204;-31
2022/10/11 03:27:30;;;;;;;3.10;2.80;;;;;;;22.98;55.42;97961.56;4973809;28;20227;-31
2022/10/11 03:29:56;;;;;;;3.07;2.87;;;;;;;23.00;55.62;97961.59;4973782;28;20196;-31
2022/10/11 03:32:23;;;;;;;2.93;2.73;;;;;;;22.98;55.34;97966.69;4973045;28;20208;-31
2022/10/11 03:34:49;;;;;;;3.10;2.90;;;;;;;22.99;55.28;97963.31;4975683;28;20573;-31
2022/10/11 03:37:16;;;;;;;2.97;2.70;;;;;;;22.96;55.38;97970.03;4975248;28;20702;-31
2022/10/11 03:39:44;;;;;;;2.80;2.60;;;;;;;22.98;55.47;97971.81;4974013;28;20228;-31
2022/10/11 03:42:11;;;;;;;2.97;2.77;;;;;;;22.97;55.38;97972.66;4976698;28;20583;-31
2022/10/11 03:44:38;;;;;;;2.67;2.47;;;;;;;22.97;55.40;97980.34;4973853;28;20221;-31
2022/10/11 03:47:04;;;;;;;3.53;3.23;;;;;;;22.98;55.41;97974.38;4972750;28;20195;-31
2022/10/11 03:49:31;;;;;;;3.30;3.00;;;;;;;22.99;55.29;97976.13;4972863;28;20218;-31
2022/10/11 03:51:58;;;;;;;3.70;3.20;;;;;;;22.98;55.13;97981.22;4972068;28;20378;-31
2022/10/11 03:54:24;;;;;;;3.03;2.80;;;;;;;22.96;55.50;97988.84;4972377;28;20588;-31
2022/10/11 03:56:51;;;;;;;3.07;2.80;;;;;;;22.98;55.34;97992.31;4970203;28;20314;-31
2022/10/11 03:59:18;;;;;;;3.10;2.80;;;;;;;22.99;55.45;97990.63;4972192;28;20220;-31
2022/10/11 04:01:44;;;;;;;3.43;3.13;;;;;;;22.99;55.53;97985.50;4972238;28;20222;-31
2022/10/11 04:04:11;;;;;;;2.67;2.47;;;;;;;22.98;55.48;97992.31;4972715;28;20210;-31
2022/10/11 04:06:37;;;;;;;3.10;2.67;;;;;;;22.98;55.27;97994.03;4972950;28;20204;-31
2022/10/11 04:09:04;;;;;;;2.90;2.60;;;;;;;22.98;55.44;97991.47;4972760;28;20220;-31
2022/10/11 04:11:30;;;;;;;2.70;2.50;;;;;;;22.93;55.60;97986.19;4971581;28;20658;-31
2022/10/11 04:13:57;;;;;;;3.47;3.17;;;;;;;22.99;55.37;97993.19;4966697;28;20212;-31
2022/10/11 04:16:23;;;;;;;2.77;2.57;;;;;;;22.98;55.40;97994.88;4972547;28;20223;-31
2022/10/11 04:18:50;;;;;;;3.40;3.10;;;;;;;22.97;55.50;97990.59;4971757;28;20230;-31
2022/10/11 04:21:16;;;;;;;2.70;2.50;;;;;;;22.96;55.50;97993.09;4972471;28;20204;-32
2022/10/11 04:23:43;;;;;;;2.90;2.70;;;;;;;22.95;55.41;97994.78;4970323;28;20207;-31
2022/10/11 04:26:09;;;;;;;2.80;2.60;;;;;;;22.98;55.57;98002.56;4973029;28;20199;-31
2022/10/11 04:28:36;;;;;;;2.67;2.47;;;;;;;22.99;55.48;97999.22;4973515;28;20235;-31
2022/10/11 04:31:04;;;;;;;3.53;2.93;;;;;;;22.99;55.47;98012.03;4966574;28;20200;-31
2022/10/11 04:33:30;;;;;;;2.80;2.60;;;;;;;22.98;55.47;98010.25;4963801;28;20259;-31
2022/10/11 04:35:57;;;;;;;2.97;2.77;;;;;;;22.98;55.44;98011.97;4967227;28;20204;-31
2022/10/11 04:38:23;;;;;;;2.77;2.57;;;;;;;22.99;55.45;98012.03;4969201;28;20242;-31
2022/10/11 04:40:50;;;;;;;3.13;2.83;;;;;;;22.99;55.23;98009.47;4969745;28;20222;-31
2022/10/11 04:43:17;;;;;;;3.20;3.00;;;;;;;22.98;55.40;98037.63;4971701;28;20204;-31
2022/10/11 04:45:44;;;;;;;2.97;2.67;;;;;;;22.99;55.53;98018.84;4971959;28;20205;-31
2022/10/11 04:48:10;;;;;;;3.00;2.80;;;;;;;22.99;55.51;98018.84;4972169;28;20226;-31
2022/10/11 04:50:37;;;;;;;3.20;2.90;;;;;;;23.00;55.67;98023.13;4971878;28;20204;-31
2022/10/11 04:53:03;;;;;;;3.20;2.90;;;;;;;22.99;55.55;98019.72;4971569;28;20203;-31
2022/10/11 04:55:30;;;;;;;3.60;3.00;;;;;;;23.00;55.70;98025.69;4971278;28;20208;-31
2022/10/11 04:57:56;;;;;;;3.40;3.10;;;;;;;23.00;55.53;98021.44;4974189;28;20223;-31
2022/10/11 05:00:23;;;;;;;3.50;2.80;;;;;;;23.00;55.53;98024.00;4976126;28;20230;-31
2022/10/11 05:02:51;;;;;;;2.90;2.60;;;;;;;23.01;55.47;98019.75;4973055;28;20207;-31
2022/10/11 05:05:18;;;;;;;3.13;2.83;;;;;;;23.00;55.50;98018.88;4975456;28;20242;-31
2022/10/11 05:07:44;;;;;;;3.03;2.83;;;;;;;22.99;55.53;98021.41;4974371;28;20721;-31
2022/10/11 05:10:11;;;;;;;2.73;2.50;;;;;;;23.00;55.50;98026.56;4971421;28;20204;-31
2022/10/11 05:12:37;;;;;;;3.03;2.80;;;;;;;22.96;55.02;98021.31;4971483;28;20200;-31
2022/10/11 05:15:05;;;;;;;3.20;2.90;;;;;;;23.03;55.51;98028.34;4971596;28;20199;-31
2022/10/11 05:17:31;;;;;;;2.77;2.57;;;;;;;23.02;55.39;98030.06;4971471;28;20216;-31
2022/10/11 05:19:58;;;;;;;2.70;2.50;;;;;;;23.00;55.35;98031.69;4970345;28;20567;-31
2022/10/11 05:22:24;;;;;;;2.83;2.63;;;;;;;23.03;55.45;98034.34;4969484;28;20590;-31
2022/10/11 05:24:51;;;;;;;3.87;3.10;;;;;;;22.98;55.55;98022.22;4971424;28;20214;-31
2022/10/11 05:27:17;;;;;;;18.23;3.60;;;;;;;23.05;55.77;98029.28;4970080;28;20231;-31
2022/10/11 05:29:44;;;;;;;7.03;4.73;;;;;;;23.04;55.69;98032.69;4972937;28;20610;-31
2022/10/11 05:32:11;;;;;;;7.23;5.00;;;;;;;23.04;55.54;98030.13;4964745;28;20200;-31
2022/10/11 05:34:37;;;;;;;6.67;5.57;;;;;;;23.04;55.42;98036.09;4968476;28;20238;-31
2022/10/11 05:37:04;;;;;;;7.63;5.10;;;;;;;23.04;55.34;98037.81;4973042;28;20200;-31
2022/10/11 05:39:31;;;;;;;6.37;4.97;;;;;;;23.03;55.34;98039.50;4971566;28;20227;-31
2022/10/11 05:41:57;;;;;;;8.73;5.40;;;;;;;23.03;55.44;98049.75;4971763;28;20196;-31
2022/10/11 05:44:24;;;;;;;7.63;5.37;;;;;;;23.03;55.33;98048.88;4970181;28;20200;-31
2022/10/11 05:46:51;;;;;;;6.07;4.97;;;;;;;23.02;55.48;98055.69;4975245;28;20207;-31
2022/10/11 05:49:17;;;;;;;5.23;4.47;;;;;;;23.01;55.27;98060.78;4979788;28;20215;-31
2022/10/11 05:51:44;;;;;;;5.17;4.37;;;;;;;23.01;55.55;98063.34;4975033;28;20195;-31
2022/10/11 05:54:10;;;;;;;6.50;4.70;;;;;;;23.01;55.47;98069.31;4975375;28;20207;-31
2022/10/11 05:56:37;;;;;;;6.57;4.37;;;;;;;22.99;55.42;98063.31;4975265;28;20199;-31
2022/10/11 05:59:03;;;;;;;7.50;4.13;;;;;;;22.44;55.37;97964.06;4975308;28;20227;-31
2022/10/11 06:01:30;;;;;;;6.03;4.10;;;;;;;23.01;55.42;98074.44;4974995;28;20597;-31
2022/10/11 06:03:57;;;;;;;4.23;3.83;;;;;;;23.01;55.54;98073.59;4978730;28;20742;-31
2022/10/11 06:06:23;;;;;;;4.83;3.90;;;;;;;23.00;55.35;98077.84;4973456;28;20211;-31
2022/10/11 06:08:50;;;;;;;4.63;3.97;;;;;;;22.98;55.40;98071.78;4975527;28;20478;-31
2022/10/11 06:11:22;;;;;;;5.17;3.90;;;;;;;23.00;55.46;98074.41;4975174;28;20211;-31
2022/10/11 06:13:48;;;;;;;4.63;3.97;;;;;;;22.98;55.38;98069.22;4975147;28;20204;-31
2022/10/11 06:16:15;;;;;;;4.50;3.90;;;;;;;23.01;55.45;98086.41;4974497;28;20196;-31
2022/10/11 06:18:41;;;;;;;3.90;3.50;;;;;;;23.01;55.32;98091.53;4974704;28;20233;-31
2022/10/11 06:21:08;;;;;;;6.00;3.97;;;;;;;23.00;55.35;98082.97;4967654;28;20220;-31
2022/10/11 06:23:34;;;;;;;3.90;3.37;;;;;;;23.02;55.43;98089.03;4975246;28;20211;-31
2022/10/11 06:26:04;;;;;;;4.43;4.00;;;;;;;23.00;55.38;98088.09;4972345;28;20216;-30
2022/10/11 06:28:31;;;;;;;5.07;3.80;;;;;;;23.02;55.39;98090.72;4973374;28;20418;-31
2022/10/11 06:30:58;;;;;;;4.53;3.57;;;;;;;22.99;55.44;98083.81;4974798;28;20196;-31
2022/10/11 06:33:25;;;;;;;4.70;3.80;;;;;;;23.02;55.40;98096.72;4973964;28;20203;-31
2022/10/11 06:36:02;;;;;;;5.87;4.00;;;;;;;23.02;55.31;98098.41;4974850;28;20218;-31
2022/10/11 06:38:29;;;;;;;3.83;3.53;;;;;;;23.03;55.29;98100.13;4975126;28;20341;-31
2022/10/11 06:40:55;;;;;;;4.03;3.63;;;;;;;22.96;55.57;98095.66;4973244;28;20600;-31
2022/10/11 06:43:22;;;;;;;3.57;3.27;;;;;;;23.02;55.36;98106.97;4974504;28;20214;-31
2022/10/11 06:45:49;;;;;;;4.83;4.33;;;;;;;23.02;55.37;98106.09;4973959;28;20215;-31
2022/10/11 06:48:15;;;;;;;15.43;6.27;;;;;;;23.03;55.76;98105.25;4974643;28;20230;-31
2022/10/11 06:50:42;;;;;;;9.20;5.93;;;;;;;23.01;55.92;98102.66;4974481;28;20290;-31
2022/10/11 06:53:26;;;;;;;9.83;5.80;;;;;;;23.01;55.92;98109.50;4973490;28;20206;-31
2022/10/11 06:55:52;;;;;;;11.37;6.60;;;;;;;23.01;55.68;98109.50;4973810;28;20603;-31
2022/10/11 06:58:19;;;;;;;8.00;5.33;;;;;;;23.01;55.28;98117.19;4971887;28;20580;-31
2022/10/11 07:00:45;;;;;;;9.03;5.20;;;;;;;23.01;55.65;98117.19;4971747;28;20219;-31
2022/10/11 07:03:12;;;;;;;8.20;5.30;;;;;;;23.00;55.74;98113.75;4970089;28;20208;-31
2022/10/11 07:05:39;;;;;;;6.83;4.90;;;;;;;23.00;55.55;98118.88;4969724;28;20678;-31
2022/10/11 07:08:05;;;;;;;7.27;4.83;;;;;;;22.97;55.59;98110.19;4971725;28;20216;-31
2022/10/11 07:10:32;;;;;;;5.67;4.53;;;;;;;22.96;55.53;98111.91;4973868;28;20583;-31
2022/10/11 07:12:58;;;;;;;6.77;5.07;;;;;;;23.00;55.86;98123.09;4972352;28;20200;-31
2022/10/11 07:15:25;;;;;;;6.73;4.70;;;;;;;23.00;55.61;98121.44;4965017;28;20208;-31
2022/10/11 07:17:51;;;;;;;8.27;4.80;;;;;;;23.00;55.44;98124.00;4968804;28;20227;-31
2022/10/11 07:20:18;;;;;;;6.43;4.90;;;;;;;23.00;55.62;98128.22;4970348;28;20229;-31
2022/10/11 07:22:44;;;;;;;6.33;4.60;;;;;;;23.01;55.70;98127.44;4970355;28;20208;-31
2022/10/11 07:25:11;;;;;;;6.10;4.33;;;;;;;22.94;55.41;98116.09;4970514;28;20479;-31
2022/10/11 07:27:37;;;;;;;6.00;4.43;;;;;;;23.01;55.58;98140.25;4965939;28;20235;-31
2022/10/11 07:30:04;;;;;;;5.70;4.33;;;;;;;23.01;55.56;98141.09;4969358;28;20196;-31
2022/10/11 07:32:31;;;;;;;7.77;4.93;;;;;;;23.00;55.55;98135.94;4969148;28;20199;-31
2022/10/11 07:34:57;;;;;;;4.47;4.00;;;;;;;23.00;55.50;98144.50;4968629;28;20200;-31
2022/10/11 07:37:24;;;;;;;6.00;4.37;;;;;;;23.01;55.54;98147.94;4967192;28;20266;-31
2022/10/11 07:39:50;;;;;;;6.00;4.60;;;;;;;23.00;55.57;98151.31;4969113;28;20199;-31
2022/10/11 07:42:17;;;;;;;7.00;4.87;;;;;;;23.01;55.70;98155.63;4969774;28;20216;-31
2022/10/11 07:44:43;;;;;;;5.97;4.20;;;;;;;23.01;55.57;98153.06;4968831;28;20204;-31
2022/10/11 07:47:10;;;;;;;6.67;4.20;;;;;;;23.00;55.49;98151.31;4969546;28;20204;-31
2022/10/11 07:49:37;;;;;;;6.00;4.50;;;;;;;22.97;55.63;98144.41;4969670;28;20200;-31
2022/10/11 07:52:03;;;;;;;5.00;4.33;;;;;;;23.00;55.61;98152.19;4969523;28;20204;-31
2022/10/11 07:54:30;;;;;;;5.37;3.97;;;;;;;23.01;55.57;98153.06;4969232;28;20212;-31
2022/10/11 07:56:56;;;;;;;5.13;3.80;;;;;;;23.00;55.69;98149.63;4969072;28;20455;-31
2022/10/11 07:59:23;;;;;;;4.37;3.90;;;;;;;23.01;55.62;98146.22;4969154;28;20204;-31
2022/10/11 08:01:49;;;;;;;5.37;4.67;;;;;;;23.01;55.28;98147.94;4969370;28;20223;-31
2022/10/11 08:04:16;;;;;;;4.47;3.87;;;;;;;23.02;55.53;98152.25;4968851;28;20726;-31
2022/10/11 08:06:42;;;;;;;4.30;3.90;;;;;;;23.01;55.70;98153.06;4968825;28;20497;-31
2022/10/11 08:09:10;;;;;;;5.37;4.07;;;;;;;23.02;55.48;98158.25;4968391;28;20223;-31
2022/10/11 08:11:37;;;;;;;4.17;3.77;;;;;;;23.02;55.56;98157.38;4968665;28;20198;-31
2022/10/11 08:14:07;;;;;;;4.90;4.10;;;;;;;22.96;55.60;98139.22;4952275;28;20214;-31
2022/10/11 08:16:34;;;;;;;5.53;4.03;;;;;;;23.00;55.57;98154.75;4963724;28;20211;-31
2022/10/11 08:19:02;;;;;;;4.00;3.63;;;;;;;22.99;55.62;98149.56;4969145;28;20299;-31
2022/10/11 08:21:28;;;;;;;4.30;3.90;;;;;;;23.03;55.50;98156.53;4968841;28;20671;-31
2022/10/11 08:23:55;;;;;;;4.97;3.90;;;;;;;23.02;55.71;98153.13;4969418;28;20204;-31
2022/10/11 08:26:22;;;;;;;4.00;3.60;;;;;;;23.02;55.53;98147.13;4969467;28;20208;-31
2022/10/11 08:28:48;;;;;;;4.13;3.73;;;;;;;23.03;55.46;98159.09;4968957;28;20227;-31
2022/10/11 08:31:15;;;;;;;5.87;3.67;;;;;;;23.03;55.42;98156.53;4969152;28;20200;-31
2022/10/11 08:33:42;;;;;;;4.40;3.90;;;;;;;23.03;55.49;98151.41;4969313;28;20203;-31
2022/10/11 08:36:08;;;;;;;3.97;3.30;;;;;;;23.03;55.76;98159.97;4961546;28;20210;-31
2022/10/11 08:38:36;;;;;;;3.93;3.53;;;;;;;23.02;55.09;98160.81;4951698;28;20259;-31
2022/10/11 08:41:09;;;;;;;4.33;3.63;;;;;;;23.02;55.36;98162.50;4968918;28;20608;-31
2022/10/11 08:44:04;;;;;;;4.53;3.70;;;;;;;23.02;55.63;98160.81;4952606;28;20236;-31
2022/10/11 08:46:32;;;;;;;4.27;3.87;;;;;;;23.02;55.56;98158.25;4962665;28;20437;-31
2022/10/11 08:48:59;;;;;;;4.03;3.63;;;;;;;23.01;55.38;98159.06;4967572;28;20535;-31
2022/10/11 08:51:35;;;;;;;4.93;3.70;;;;;;;23.01;55.51;98159.06;4969107;28;20200;-31
2022/10/11 08:54:33;;;;;;;4.37;3.80;;;;;;;23.03;55.49;98164.22;4967538;28;20214;-31
2022/10/11 08:57:01;;;;;;;5.17;4.17;;;;;;;22.98;55.50;98155.53;4966911;28;20204;-31
2022/10/11 08:59:42;;;;;;;8.00;5.77;;;;;;;23.02;56.36;98163.38;4950613;28;20200;-31
2022/10/11 09:02:15;;;;;;;8.37;5.30;;;;;;;23.03;56.61;98164.22;4965739;28;20219;-31
2022/10/11 09:04:42;;;;;;;5.83;5.10;;;;;;;23.03;56.52;98169.34;4967770;28;20196;-31
2022/10/11 09:07:46;;;;;;;6.37;4.93;;;;;;;23.03;56.42;98170.25;4949289;28;20208;-31
2022/10/11 09:10:33;;;;;;;6.97;4.80;;;;;;;23.03;56.28;98164.22;4961496;28;20204;-31
2022/10/11 09:13:30;;;;;;;6.70;5.10;;;;;;;23.01;56.21;98158.19;4964408;28;20258;-31
2022/10/11 09:16:05;;;;;;;6.87;5.23;;;;;;;23.01;56.13;98159.06;4966823;28;20301;-31
2022/10/11 09:19:11;;;;;;;6.67;5.17;;;;;;;23.01;56.18;98164.19;4964275;28;20580;-31
2022/10/11 09:21:59;;;;;;;8.13;4.70;;;;;;;23.00;56.24;98166.69;4964807;28;20231;-31
2022/10/11 09:24:32;;;;;;;5.77;4.50;;;;;;;23.00;56.12;98161.56;4968437;28;20203;-31
2022/10/11 09:27:23;;;;;;;4.87;4.30;;;;;;;22.97;56.00;98161.47;4966128;28;20671;-31
2022/10/11 09:30:14;;;;;;;5.50;4.00;;;;;;;22.99;56.26;98162.41;4939264;28;20207;-31
2022/10/11 09:32:42;;;;;;;5.63;4.23;;;;;;;22.98;56.16;98164.06;4971472;28;20683;-31
2022/10/11 09:35:14;;;;;;;5.70;4.13;;;;;;;22.98;56.29;98158.94;4966309;28;20207;-31
2022/10/11 09:38:08;;;;;;;5.93;4.20;;;;;;;22.98;56.06;98164.06;4968663;28;20227;-31
2022/10/11 09:40:53;;;;;;;5.20;3.90;;;;;;;22.99;56.14;98167.53;4966645;28;20664;-31
2022/10/11 09:43:20;;;;;;;4.10;3.70;;;;;;;22.94;56.35;98154.56;4971497;28;20222;-31
2022/10/11 09:45:46;;;;;;;5.23;4.07;;;;;;;23.00;56.06;98166.69;4968601;28;20206;-31
2022/10/11 09:48:27;;;;;;;4.23;3.70;;;;;;;22.89;55.95;98142.41;4970848;28;20235;-31
2022/10/11 09:50:55;;;;;;;4.20;3.80;;;;;;;23.00;55.87;98166.69;4960216;28;20598;-31
2022/10/11 09:53:49;;;;;;;3.93;3.50;;;;;;;23.01;55.82;98165.91;4954358;28;20199;-31
2022/10/11 09:56:16;;;;;;;3.97;3.57;;;;;;;23.03;55.89;98171.91;4982366;28;20212;-31
2022/10/11 09:58:42;;;;;;;3.90;3.50;;;;;;;23.03;55.75;98167.69;4969674;28;20219;-31
2022/10/11 10:01:10;;;;;;;4.33;3.77;;;;;;;23.01;55.71;98165.91;4969958;28;20226;-31
2022/10/11 10:03:41;;;;;;;4.60;3.50;;;;;;;23.03;55.83;98164.22;4968684;28;20215;-31
2022/10/11 10:06:07;;;;;;;3.97;3.40;;;;;;;23.03;55.75;98166.78;4950510;28;20203;-31
2022/10/11 10:08:35;;;;;;;4.17;3.70;;;;;;;23.02;55.79;98163.38;4970405;28;20219;-31
2022/10/11 10:11:06;;;;;;;4.30;3.90;;;;;;;22.94;56.01;98154.56;4967574;28;20699;-31
2022/10/11 10:13:54;;;;;;;4.43;3.60;;;;;;;23.00;55.96;98162.44;4954586;28;20241;-31
2022/10/11 10:16:25;;;;;;;3.80;3.40;;;;;;;22.90;55.84;98152.72;4968895;28;20208;-31
2022/10/11 10:18:55;;;;;;;4.00;3.33;;;;;;;23.03;55.94;98169.34;4969983;28;20220;-31
2022/10/11 10:21:46;;;;;;;3.60;3.30;;;;;;;23.04;55.80;98177.09;4971014;28;20282;-31
2022/10/11 10:24:35;;;;;;;3.40;3.10;;;;;;;22.98;55.64;98165.78;4957905;28;20204;-31
2022/10/11 10:27:22;;;;;;;3.30;3.00;;;;;;;23.04;55.68;98177.09;4952310;28;20220;-31
2022/10/11 10:30:01;;;;;;;9.20;3.63;;;;;;;23.04;55.82;98177.09;4963712;28;20211;-31
2022/10/11 10:32:32;;;;;;;3.87;3.47;;;;;;;23.04;55.69;98169.41;4963277;28;20191;-31
2022/10/11 10:35:05;;;;;;;3.67;3.27;;;;;;;23.04;55.78;98177.09;4947587;28;20215;-30
2022/10/11 10:37:47;;;;;;;7.33;3.60;;;;;;;23.03;55.63;98177.94;4966967;28;20227;-31
2022/10/11 10:40:17;;;;;;;5.17;3.70;;;;;;;23.01;55.55;98163.31;4974713;28;20206;-31
2022/10/11 10:42:44;;;;;;;3.67;3.20;;;;;;;23.05;55.81;98172.84;4963032;28;20227;-31
2022/10/11 10:45:13;;;;;;;3.87;3.10;;;;;;;23.04;55.63;98169.41;4964203;28;20204;-31
2022/10/11 10:47:49;;;;;;;3.97;3.03;;;;;;;23.03;55.68;98172.81;4967434;28;20682;-31
2022/10/11 10:51:02;;;;;;;3.30;3.00;;;;;;;23.04;55.69;98171.13;4965458;28;20211;-31
2022/10/11 10:53:43;;;;;;;3.37;3.10;;;;;;;23.04;55.69;98174.53;4961799;28;20214;-31
2022/10/11 10:56:14;;;;;;;3.70;3.40;;;;;;;23.04;55.84;98166.84;4964674;28;20801;-31
2022/10/11 10:59:16;;;;;;;3.60;3.03;;;;;;;23.04;55.72;98166.00;4962650;28;20230;-31
2022/10/11 11:01:55;;;;;;;3.50;3.20;;;;;;;23.05;55.70;98177.97;4932565;28;20367;-31
2022/10/11 11:04:29;;;;;;;4.47;3.00;;;;;;;23.05;55.78;98167.72;4953508;28;20234;-31
2022/10/11 11:07:08;;;;;;;3.70;3.40;;;;;;;23.05;55.58;98171.19;4971497;28;20580;-31
2022/10/11 11:10:07;;;;;;;3.83;3.27;;;;;;;23.05;55.71;98167.72;4971242;28;20604;-31
2022/10/11 11:12:42;;;;;;;3.33;3.03;;;;;;;23.03;55.50;98172.81;4966240;28;20779;-31
2022/10/11 11:15:38;;;;;;;3.40;3.10;;;;;;;23.03;55.72;98167.69;4969203;28;20205;-31
2022/10/11 11:18:58;;;;;;;4.47;3.00;;;;;;;23.06;55.64;98172.03;4968847;28;20220;-31
2022/10/11 11:21:32;;;;;;;3.93;3.50;;;;;;;22.94;55.67;98145.97;4928597;29;20299;-31
2022/10/11 11:24:20;;;;;;;3.10;2.83;;;;;;;23.05;55.50;98166.03;4972222;28;20207;-31
2022/10/11 11:27:00;;;;;;;3.60;3.17;;;;;;;23.05;55.78;98166.03;4966640;28;20204;-31
2022/10/11 11:30:07;;;;;;;3.10;2.80;;;;;;;23.05;55.73;98160.91;4955464;28;20203;-31
2022/10/11 11:32:56;;;;;;;3.33;3.03;;;;;;;22.99;55.80;98150.47;4940917;28;20723;-31
2022/10/11 11:35:29;;;;;;;3.37;3.07;;;;;;;23.05;55.65;98160.03;4968492;28;20633;-31
2022/10/11 11:38:29;;;;;;;3.40;3.10;;;;;;;23.05;55.42;98158.34;4953720;28;20236;-31
2022/10/11 11:41:04;;;;;;;2.97;2.77;;;;;;;23.05;55.69;98160.03;4972595;28;20573;-31
2022/10/11 11:43:41;;;;;;;3.40;3.10;;;;;;;23.05;55.77;98167.72;4954645;28;20195;-31
2022/10/11 11:46:15;;;;;;;3.33;3.03;;;;;;;23.05;55.68;98153.22;4969386;28;20230;-31
2022/10/11 11:48:42;;;;;;;3.33;3.03;;;;;;;23.05;55.64;98150.66;4970902;28;20219;-31
2022/10/11 11:51:12;;;;;;;3.80;3.10;;;;;;;23.02;55.73;98149.69;4955107;28;20207;-31
2022/10/11 11:53:50;;;;;;;3.37;3.07;;;;;;;23.05;55.50;98154.91;4953947;28;20215;-31
2022/10/11 11:56:25;;;;;;;3.00;2.50;;;;;;;23.05;55.64;98154.91;4969400;28;20203;-31